DW5923 Weather Reports


Display with metric or nautical units.
time (UTC)temp
F
wind
direction
speed
MPH
gust
MPH
rain 1hr
in
rain 24hr
in
rain mn
in
humidity
%
barometer
mb
20191210234603 41 286 0.0 0.0 0.00 0.00 0.00 48 1023.2
20191210233104 40 287 0.0 1.0 0.00 0.00 0.00 49 1023.2
20191210231637 40 282 0.0 0.0 0.00 0.00 0.00 49 1023.4
20191210230018 40 282 0.0 0.0 0.00 0.00 0.00 50 1023.4
20191210224510 41 282 0.0 0.0 0.00 0.00 0.00 47 1023.5
20191210223015 40 283 0.0 0.0 0.00 0.00 0.00 48 1023.5
20191210221556 43 283 0.0 1.0 0.00 0.00 0.00 42 1023.4
20191210220040 42 275 0.0 0.0 0.00 0.00 0.00 42 1023.1
20191210214503 43 256 0.0 7.0 0.00 0.00 0.00 40 1023.0
20191210213009 43 294 2.0 7.0 0.00 0.00 0.00 42 1023.0
20191210211822 43 289 5.0 8.0 0.00 0.00 0.00 45 1023.0
20191210210324 42 273 0.0 0.0 0.00 0.00 0.00 42 1022.8
20191210204814 43 256 0.0 0.0 0.00 0.00 0.00 38 1022.7
20191210203129 44 256 0.0 1.0 0.00 0.00 0.00 36 1022.6
20191210201821 44 261 0.0 1.0 0.00 0.00 0.00 35 1022.4
20191210200213 45 258 0.0 1.0 0.00 0.00 0.00 31 1022.4
20191210194736 45 258 0.0 7.0 0.00 0.00 0.00 32 1022.2
20191210193151 45 261 0.0 0.0 0.00 0.00 0.00 35 1021.9
20191210191813 45 285 3.0 7.0 0.00 0.00 0.00 34 1021.8
20191210190153 44 257 0.0 0.0 0.00 0.00 0.00 37 1021.8
20191210184719 46 257 2.0 7.0 0.00 0.00 0.00 31 1021.6
20191210183223 45 269 0.0 6.0 0.00 0.00 0.00 31 1021.5
20191210181653 45 266 0.0 1.0 0.00 0.00 0.00 34 1021.2
20191210180304 45 265 0.0 1.0 0.00 0.00 0.00 33 1021.3
20191210174702 45 265 0.0 1.0 0.00 0.00 0.00 34 1021.1
20191210173149 44 285 0.0 0.0 0.00 0.00 0.00 35 1021.0
20191210171623 46 285 0.0 0.0 0.00 0.00 0.00 31 1020.7
20191210170048 48 285 0.0 1.0 0.00 0.00 0.00 31 1020.4
20191210164703 49 265 3.0 6.0 0.00 0.00 0.00 26 1020.3
20191210163123 50 321 0.0 9.0 0.00 0.00 0.00 27 1020.0
20191210161540 50 296 3.0 10.0 0.00 0.00 0.00 25 1019.7
20191210160150 51 270 7.0 11.0 0.00 0.00 0.00 24 1019.7
20191210154533 50 279 6.0 12.0 0.00 0.00 0.00 25 1019.6
20191210153117 51 289 4.0 13.0 0.00 0.00 0.00 26 1019.4
20191210151543 51 289 6.0 12.0 0.00 0.00 0.00 25 1019.4
20191210150029 51 278 7.0 14.0 0.00 0.00 0.00 25 1019.3
20191210144616 51 256 4.0 13.0 0.00 0.00 0.00 28 1019.2
20191210143120 50 261 5.0 10.0 0.00 0.00 0.00 29 1019.2
20191210141547 50 290 6.0 11.0 0.00 0.00 0.00 30 1019.2
20191210140034 50 296 6.0 11.0 0.00 0.00 0.00 29 1019.1
20191210134554 51 274 4.0 7.0 0.00 0.00 0.00 26 1019.3
20191210133136 50 271 0.0 2.0 0.00 0.00 0.00 29 1019.1
20191210131540 52 291 0.0 8.0 0.00 0.00 0.00 28 1019.1
20191210130034 52 265 5.0 9.0 0.00 0.00 0.00 25 1018.9
20191210124527 53 272 3.0 8.0 0.00 0.00 0.00 25 1019.0
20191210123037 54 263 3.0 9.0 0.00 0.00 0.00 22 1018.9
20191210121513 54 312 6.0 19.0 0.00 0.00 0.00 22 1019.2
20191210120044 54 283 6.0 13.0 0.00 0.00 0.00 23 1019.3
20191210114610 54 303 1.0 8.0 0.00 0.00 0.00 24 1019.5
20191210113017 53 319 3.0 11.0 0.00 0.00 0.00 24 1019.8
20191210111534 53 281 7.0 13.0 0.00 0.00 0.00 24 1019.9
20191210110011 53 323 5.0 15.0 0.00 0.00 0.00 27 1020.3
20191210104625 53 294 7.0 14.0 0.00 0.00 0.00 27 1020.3
20191210103021 53 328 6.0 13.0 0.00 0.00 0.00 24 1020.4
20191210101513 53 342 6.0 13.0 0.00 0.00 0.00 28 1020.6
20191210100007 53 306 6.0 14.0 0.00 0.00 0.00 25 1020.4
20191210094504 53 281 7.0 16.0 0.00 0.00 0.00 27 1020.3
20191210093204 53 303 13.0 20.0 0.00 0.00 0.00 26 1020.0
20191210091801 53 300 9.0 20.0 0.00 0.00 0.00 29 1019.6
20191210090234 53 285 10.0 21.0 0.00 0.00 0.00 28 1019.5
20191210084705 52 309 11.0 18.0 0.00 0.00 0.00 29 1019.1
20191210083141 52 302 9.0 18.0 0.00 0.00 0.00 30 1018.9
20191210081642 52 335 8.0 22.0 0.00 0.00 0.00 32 1018.6
20191210080136 52 313 6.0 25.0 0.00 0.00 0.00 34 1018.3
20191210074639 52 333 9.0 20.0 0.00 0.00 0.00 42 1018.0
20191210073111 50 0.0 0.0 0.00 0.00 0.00 42 1017.7
20191210071632 50 0.0 0.0 0.00 0.00 0.00 42 1017.2
20191210070125 50 0.0 0.0 0.00 0.00 0.00 42 1017.1
20191210064611 50 0.0 0.0 0.00 0.00 0.00 42 1016.9
20191210063113 50 0.0 0.0 0.00 0.00 0.00 42 1016.8
20191210061550 50 0.0 0.0 0.00 0.00 0.00 42 1016.4
20191210060038 50 294 7.0 13.0 0.00 0.00 0.00 42 1016.1
20191210054526 50 294 7.0 13.0 0.00 0.00 0.00 42 1015.8
20191210053022 50 319 6.0 14.0 0.00 0.00 0.00 45 1015.5
20191210051520 48 279 6.0 13.0 0.00 0.00 0.00 50 1015.3
20191210050010 47 270 4.0 9.0 0.00 0.00 0.00 54 1015.1
20191210044651 45 0.0 0.0 0.00 0.00 0.00 76 1015.0
20191210043207 45 0.0 0.0 0.00 0.00 0.00 76 1014.8
20191210041656 45 0.0 0.0 0.00 0.00 0.00 76 1014.6
20191210040215 45 0.0 0.0 0.00 0.00 0.00 76 1014.5
20191210034634 45 0.0 0.0 0.00 0.00 0.00 76 1014.3
20191210033151 45 0.0 0.0 0.00 0.00 0.00 76 1013.9
20191210031602 45 0.0 0.0 0.00 0.00 0.00 76 1013.8
20191210030047 45 0.0 0.0 0.00 0.00 0.00 76 1013.6
20191210024537 45 0.0 0.0 0.00 0.00 0.00 76 1013.3
20191210023037 45 0.0 0.0 0.00 0.00 0.00 76 1013.0
20191210021539 45 0.0 0.0 0.00 0.00 0.00 76 1013.1
20191210020122 45 0.0 0.0 0.00 0.00 0.00 76 1013.0
20191210014515 45 0.0 0.0 0.00 0.00 0.00 76 1012.6
20191210013004 45 0.0 0.0 0.00 0.00 0.00 76 1012.4
20191210011633 45 0.0 0.0 0.00 0.00 0.00 76 1012.2
20191210010113 45 0.0 0.0 0.00 0.00 0.00 76 1011.9
20191210004634 45 0.0 0.0 0.00 0.00 0.00 76 1011.9
20191210003135 45 0.0 0.0 0.00 0.00 0.00 76 1011.6
20191210001623 45 0.0 0.0 0.00 0.00 0.00 76 1011.4
20191210000204 45 0.0 0.0 0.00 0.00 0.00 76 1011.3